Time;durP1;ratioP1;P1;durP2;ratioP2;P2;SDS_P1;SDS_P2;PMS_P1;PMS_P2;Temp;Humidity;BMP_temperature;BMP_pressure;BME280_temperature;BME280_humidity;BME280_pressure;Samples;Min_cycle;Max_cycle;Signal;HPM_P1;HPM_P2
2024/01/19 00:02:09;;;;;;;;;;;;;;;;;;5072810;28;19920;-75
2024/01/19 00:04:34;;;;;;;;;;;;;;;;;;5086430;28;19999;-76
2024/01/19 00:06:59;;;;;;;;;;;;;;;;;;5076802;28;19977;-75
2024/01/19 00:09:24;;;;;;;;;;;;;;;;;;5063670;28;19916;-75
2024/01/19 00:11:50;;;;;;;;;;;;;;;;;;5051344;28;19956;-75
2024/01/19 00:14:15;;;;;;;;;;;;;;;;;;5069147;28;20381;-76
2024/01/19 00:16:40;;;;;;;;;;;;;;;;;;5077222;28;19924;-75
2024/01/19 00:19:05;;;;;;;;;;;;;;;;;;5069549;28;19916;-75
2024/01/19 00:21:30;;;;;;;;;;;;;;;;;;5075757;28;19924;-75
2024/01/19 00:23:55;;;;;;;;;;;;;;;;;;5075165;28;19931;-75
2024/01/19 00:26:20;;;;;;;;;;;;;;;;;;5065027;28;20258;-75
2024/01/19 00:28:45;;;;;;;;;;;;;;;;;;5069739;28;20106;-75
2024/01/19 00:31:10;;;;;;;;;;;;;;;;;;5056709;28;20002;-75
2024/01/19 00:33:35;;;;;;;;;;;;;;;;;;5069187;28;19923;-75
2024/01/19 00:36:00;;;;;;;;;;;;;;;;;;5069317;28;19927;-75
2024/01/19 00:38:26;;;;;;;;;;;;;;;;;;5068287;28;19917;-75
2024/01/19 00:40:51;;;;;;;;;;;;;;;;;;5074497;28;19916;-75
2024/01/19 00:43:16;;;;;;;;;;;;;;;;;;5077482;28;19920;-75
2024/01/19 00:45:41;;;;;;;;;;;;;;;;;;5069113;28;20285;-75
2024/01/19 00:48:06;;;;;;;;;;;;;;;;;;5068665;28;19916;-76
2024/01/19 00:50:31;;;;;;;;;;;;;;;;;;5068924;28;20023;-75
2024/01/19 00:52:56;;;;;;;;;;;;;;;;;;5073982;28;19926;-75
2024/01/19 00:55:21;;;;;;;;;;;;;;;;;;5073063;28;19950;-75
2024/01/19 00:57:47;;;;;;;;;;;;;;;;;;5066770;28;19917;-76
2024/01/19 01:00:12;;;;;;;;;;;;;;;;;;5074132;28;20356;-76
2024/01/19 01:02:37;;;;;;;;;;;;;;;;;;5082224;28;20004;-76
2024/01/19 01:05:02;;;;;;;;;;;;;;;;;;5073353;28;19920;-75
2024/01/19 01:07:27;;;;;;;;;;;;;;;;;;5072840;28;19920;-75
2024/01/19 01:09:52;;;;;;;;;;;;;;;;;;5078265;28;19927;-75
2024/01/19 01:12:17;;;;;;;;;;;;;;;;;;5083714;28;19950;-75
2024/01/19 01:14:42;;;;;;;;;;;;;;;;;;5073010;28;19916;-75
2024/01/19 01:17:08;;;;;;;;;;;;;;;;;;5073178;28;20425;-75
2024/01/19 01:19:33;;;;;;;;;;;;;;;;;;5089116;28;19966;-75
2024/01/19 01:21:58;;;;;;;;;;;;;;;;;;5069440;28;19975;-76
2024/01/19 01:24:23;;;;;;;;;;;;;;;;;;5068642;28;19996;-75
2024/01/19 01:26:48;;;;;;;;;;;;;;;;;;5072908;28;19916;-75
2024/01/19 01:29:13;;;;;;;;;;;;;;;;;;5080573;28;19943;-75
2024/01/19 01:31:38;;;;;;;;;;;;;;;;;;5066532;28;19924;-75
2024/01/19 01:34:04;;;;;;;;;;;;;;;;;;5069054;28;19920;-76
2024/01/19 01:36:29;;;;;;;;;;;;;;;;;;5072217;28;20467;-75
2024/01/19 01:38:55;;;;;;;;;;;;;;;;;;5079498;28;20017;-75
2024/01/19 01:41:20;;;;;;;;;;;;;;;;;;5080626;28;19923;-76
2024/01/19 01:43:45;;;;;;;;;;;;;;;;;;5072424;28;19917;-75
2024/01/19 01:46:10;;;;;;;;;;;;;;;;;;5073489;28;19917;-75
2024/01/19 01:48:35;;;;;;;;;;;;;;;;;;5091457;28;20400;-75
2024/01/19 01:51:00;;;;;;;;;;;;;;;;;;5092353;28;19955;-75
2024/01/19 01:53:25;;;;;;;;;;;;;;;;;;5072512;28;19921;-75
2024/01/19 01:55:50;;;;;;;;;;;;;;;;;;5072442;28;19969;-75
2024/01/19 01:58:15;;;;;;;;;;;;;;;;;;5054054;28;20345;-75
2024/01/19 02:00:40;;;;;;;;;;;;;;;;;;5088543;28;20390;-76
2024/01/19 02:03:05;;;;;;;;;;;;;;;;;;5088716;28;19920;-75
2024/01/19 02:05:31;;;;;;;;;;;;;;;;;;5081852;28;19924;-75
2024/01/19 02:07:56;;;;;;;;;;;;;;;;;;5085937;28;19916;-75
2024/01/19 02:10:21;;;;;;;;;;;;;;;;;;5073935;28;19928;-75
2024/01/19 02:12:46;;;;;;;;;;;;;;;;;;5070536;28;20361;-75
2024/01/19 02:15:11;;;;;;;;;;;;;;;;;;5068214;28;19916;-75
2024/01/19 02:17:36;;;;;;;;;;;;;;;;;;5078088;28;20365;-75
2024/01/19 02:20:02;;;;;;;;;;;;;;;;;;5077932;28;19939;-75
2024/01/19 02:22:27;;;;;;;;;;;;;;;;;;5086502;28;19926;-75
2024/01/19 02:24:52;;;;;;;;;;;;;;;;;;5071414;28;19974;-75
2024/01/19 02:27:17;;;;;;;;;;;;;;;;;;5068999;28;20281;-75
2024/01/19 02:29:42;;;;;;;;;;;;;;;;;;5071695;28;19916;-75
2024/01/19 02:32:07;;;;;;;;;;;;;;;;;;5076074;28;20012;-76
2024/01/19 02:34:32;;;;;;;;;;;;;;;;;;5071441;28;19923;-75
2024/01/19 02:36:57;;;;;;;;;;;;;;;;;;5076825;28;19920;-75
2024/01/19 02:39:22;;;;;;;;;;;;;;;;;;5081874;28;20372;-75
2024/01/19 02:41:47;;;;;;;;;;;;;;;;;;5071259;28;19916;-75
2024/01/19 02:44:13;;;;;;;;;;;;;;;;;;5071227;28;19973;-76
2024/01/19 02:46:38;;;;;;;;;;;;;;;;;;5071239;28;20003;-75
2024/01/19 02:49:03;;;;;;;;;;;;;;;;;;5071383;28;19917;-75
2024/01/19 02:51:28;;;;;;;;;;;;;;;;;;5070824;28;20630;-75
2024/01/19 02:53:53;;;;;;;;;;;;;;;;;;5068568;28;19921;-75
2024/01/19 02:56:19;;;;;;;;;;;;;;;;;;5070806;28;19917;-75
2024/01/19 02:58:44;;;;;;;;;;;;;;;;;;5068550;28;19924;-75
2024/01/19 03:01:09;;;;;;;;;;;;;;;;;;5074266;28;19951;-75
2024/01/19 03:03:34;;;;;;;;;;;;;;;;;;5068716;28;19920;-75
2024/01/19 03:06:00;;;;;;;;;;;;;;;;;;5078094;28;19927;-75
2024/01/19 03:08:25;;;;;;;;;;;;;;;;;;5078059;28;19930;-76
2024/01/19 03:10:50;;;;;;;;;;;;;;;;;;5070852;28;20020;-75
2024/01/19 03:13:15;;;;;;;;;;;;;;;;;;5074768;28;19966;-75
2024/01/19 03:15:40;;;;;;;;;;;;;;;;;;5070635;28;19916;-75
2024/01/19 03:18:05;;;;;;;;;;;;;;;;;;5078413;28;20366;-75
2024/01/19 03:20:30;;;;;;;;;;;;;;;;;;5078048;28;19927;-75
2024/01/19 03:22:55;;;;;;;;;;;;;;;;;;5074726;28;19977;-75
2024/01/19 03:25:20;;;;;;;;;;;;;;;;;;5082421;28;19923;-75
2024/01/19 03:27:46;;;;;;;;;;;;;;;;;;5070569;28;19916;-74
2024/01/19 03:30:11;;;;;;;;;;;;;;;;;;5072933;28;19931;-75
2024/01/19 03:32:36;;;;;;;;;;;;;;;;;;5070190;28;19920;-75
2024/01/19 03:35:01;;;;;;;;;;;;;;;;;;5070392;28;20273;-75
2024/01/19 03:37:27;;;;;;;;;;;;;;;;;;5086828;28;19923;-74
2024/01/19 03:39:52;;;;;;;;;;;;;;;;;;5070277;28;19966;-76
2024/01/19 03:42:17;;;;;;;;;;;;;;;;;;5069696;28;19916;-75
2024/01/19 03:44:43;;;;;;;;;;;;;;;;;;5068315;28;19949;-74
2024/01/19 03:47:08;;;;;;;;;;;;;;;;;;5084418;28;19943;-74
2024/01/19 03:49:33;;;;;;;;;;;;;;;;;;5069407;28;19916;-75
2024/01/19 03:51:58;;;;;;;;;;;;;;;;;;5076170;28;19929;-75
2024/01/19 03:54:23;;;;;;;;;;;;;;;;;;5067475;28;19921;-74
2024/01/19 03:56:48;;;;;;;;;;;;;;;;;;5069720;28;19916;-75
2024/01/19 03:59:13;;;;;;;;;;;;;;;;;;5069884;28;19920;-75
2024/01/19 04:01:39;;;;;;;;;;;;;;;;;;5077362;28;19994;-74
2024/01/19 04:04:04;;;;;;;;;;;;;;;;;;5083944;28;20433;-75
2024/01/19 04:06:29;;;;;;;;;;;;;;;;;;5071848;28;19924;-75
2024/01/19 04:08:54;;;;;;;;;;;;;;;;;;5069828;28;19916;-75
2024/01/19 04:11:19;;;;;;;;;;;;;;;;;;5069749;28;19956;-75
2024/01/19 04:13:44;;;;;;;;;;;;;;;;;;5067667;28;19988;-74
2024/01/19 04:16:10;;;;;;;;;;;;;;;;;;5074767;28;19921;-75
2024/01/19 04:18:35;;;;;;;;;;;;;;;;;;5069556;28;19955;-74
2024/01/19 04:21:00;;;;;;;;;;;;;;;;;;5074258;28;19959;-74
2024/01/19 04:23:25;;;;;;;;;;;;;;;;;;5070828;28;20003;-75
2024/01/19 04:25:51;;;;;;;;;;;;;;;;;;5067212;28;19929;-75
2024/01/19 04:28:16;;;;;;;;;;;;;;;;;;5069223;28;19920;-75
2024/01/19 04:30:41;;;;;;;;;;;;;;;;;;5077958;28;20320;-75
2024/01/19 04:33:06;;;;;;;;;;;;;;;;;;5069512;28;20129;-74
2024/01/19 04:35:31;;;;;;;;;;;;;;;;;;5076899;28;20453;-75
2024/01/19 04:37:56;;;;;;;;;;;;;;;;;;5069337;28;19916;-75
2024/01/19 04:40:21;;;;;;;;;;;;;;;;;;5068833;28;19932;-75
2024/01/19 04:42:46;;;;;;;;;;;;;;;;;;5069396;28;19927;-76
2024/01/19 04:45:11;;;;;;;;;;;;;;;;;;5069358;28;19923;-75
2024/01/19 04:47:36;;;;;;;;;;;;;;;;;;5069622;28;19916;-75
2024/01/19 04:50:01;;;;;;;;;;;;;;;;;;5077914;28;19917;-76
2024/01/19 04:52:27;;;;;;;;;;;;;;;;;;5069969;28;19928;-76
2024/01/19 04:54:52;;;;;;;;;;;;;;;;;;5073085;28;19916;-75
2024/01/19 04:57:17;;;;;;;;;;;;;;;;;;5075177;28;19970;-75
2024/01/19 04:59:42;;;;;;;;;;;;;;;;;;5078592;28;19917;-75
2024/01/19 05:02:07;;;;;;;;;;;;;;;;;;5075786;28;19924;-76
2024/01/19 05:04:32;;;;;;;;;;;;;;;;;;5077945;28;19923;-76
2024/01/19 05:06:57;;;;;;;;;;;;;;;;;;5073976;28;19916;-75
2024/01/19 05:09:22;;;;;;;;;;;;;;;;;;5074280;28;19921;-75
2024/01/19 05:11:47;;;;;;;;;;;;;;;;;;5071678;28;19943;-75
2024/01/19 05:14:12;;;;;;;;;;;;;;;;;;5069507;28;20015;-75
2024/01/19 05:16:37;;;;;;;;;;;;;;;;;;5059559;28;20362;-75
2024/01/19 05:19:02;;;;;;;;;;;;;;;;;;5069175;28;19927;-75
2024/01/19 05:21:28;;;;;;;;;;;;;;;;;;5069316;28;19927;-75
2024/01/19 05:23:53;;;;;;;;;;;;;;;;;;5069216;28;19927;-75
2024/01/19 05:26:18;;;;;;;;;;;;;;;;;;5068809;28;19916;-75
2024/01/19 05:28:43;;;;;;;;;;;;;;;;;;5050120;28;20340;-75
2024/01/19 05:31:08;;;;;;;;;;;;;;;;;;5068847;28;19921;-75
2024/01/19 05:33:34;;;;;;;;;;;;;;;;;;5069010;28;19962;-75
2024/01/19 05:36:00;;;;;;;;;;;;;;;;;;5073043;28;20384;-75
2024/01/19 05:38:25;;;;;;;;;;;;;;;;;;5077391;28;19958;-74
2024/01/19 05:40:50;;;;;;;;;;;;;;;;;;5077175;28;20418;-75
2024/01/19 05:43:15;;;;;;;;;;;;;;;;;;5069337;28;19924;-75
2024/01/19 05:45:40;;;;;;;;;;;;;;;;;;5069700;28;19942;-75
2024/01/19 05:48:05;;;;;;;;;;;;;;;;;;5078819;28;19966;-75
2024/01/19 05:50:30;;;;;;;;;;;;;;;;;;5072869;28;20300;-75
2024/01/19 05:52:57;;;;;;;;;;;;;;;;;;5077070;28;20360;-75
2024/01/19 05:55:22;;;;;;;;;;;;;;;;;;5085223;28;19959;-75
2024/01/19 05:57:47;;;;;;;;;;;;;;;;;;5084870;28;19960;-75
2024/01/19 06:00:12;;;;;;;;;;;;;;;;;;5080346;28;19916;-76
2024/01/19 06:02:37;;;;;;;;;;;;;;;;;;5083649;28;19916;-75
2024/01/19 06:05:03;;;;;;;;;;;;;;;;;;5055065;28;19940;-75
2024/01/19 06:07:30;;;;;;;;;;;;;;;;;;5071801;28;19931;-75
2024/01/19 06:09:55;;;;;;;;;;;;;;;;;;5071871;28;19925;-75
2024/01/19 06:12:20;;;;;;;;;;;;;;;;;;5086865;28;19920;-76
2024/01/19 06:14:45;;;;;;;;;;;;;;;;;;5075487;28;19917;-75
2024/01/19 06:17:13;;;;;;;;;;;;;;;;;;5078384;28;19916;-75
2024/01/19 06:19:38;;;;;;;;;;;;;;;;;;5080711;28;19992;-75
2024/01/19 06:22:03;;;;;;;;;;;;;;;;;;5078841;28;19924;-75
2024/01/19 06:24:34;;;;;;;;;;;;;;;;;;5072339;28;19924;-75
2024/01/19 06:26:59;;;;;;;;;;;;;;;;;;5063737;28;19924;-75
2024/01/19 06:29:24;;;;;;;;;;;;;;;;;;5075032;28;19920;-75
2024/01/19 06:31:49;;;;;;;;;;;;;;;;;;5079968;28;19924;-75
2024/01/19 06:34:14;;;;;;;;;;;;;;;;;;5071120;28;19916;-75
2024/01/19 06:36:39;;;;;;;;;;;;;;;;;;5079042;28;19970;-74
2024/01/19 06:39:07;;;;;;;;;;;;;;;;;;5069067;28;19925;-75
2024/01/19 06:41:32;;;;;;;;;;;;;;;;;;5068707;28;19916;-75
2024/01/19 06:43:57;;;;;;;;;;;;;;;;;;5079152;28;19939;-75
2024/01/19 06:46:22;;;;;;;;;;;;;;;;;;5071387;28;19959;-75
2024/01/19 06:48:47;;;;;;;;;;;;;;;;;;5079493;28;20397;-75
2024/01/19 06:51:12;;;;;;;;;;;;;;;;;;5078193;28;20015;-75
2024/01/19 06:53:37;;;;;;;;;;;;;;;;;;5079852;28;19924;-75
2024/01/19 06:56:02;;;;;;;;;;;;;;;;;;5071226;28;19918;-75
2024/01/19 06:58:28;;;;;;;;;;;;;;;;;;5069103;28;20018;-75
2024/01/19 07:00:53;;;;;;;;;;;;;;;;;;5071429;28;20015;-75
2024/01/19 07:03:18;;;;;;;;;;;;;;;;;;5069706;28;20296;-75
2024/01/19 07:05:43;;;;;;;;;;;;;;;;;;5072635;28;19917;-75
2024/01/19 07:08:09;;;;;;;;;;;;;;;;;;5078021;28;19917;-76
2024/01/19 07:10:34;;;;;;;;;;;;;;;;;;5069281;28;19928;-75
2024/01/19 07:12:59;;;;;;;;;;;;;;;;;;5063343;28;19920;-75
2024/01/19 07:15:24;;;;;;;;;;;;;;;;;;5065600;28;19917;-75
2024/01/19 07:17:49;;;;;;;;;;;;;;;;;;5061511;28;20407;-75
2024/01/19 07:20:14;;;;;;;;;;;;;;;;;;5070435;28;19916;-75
2024/01/19 07:22:39;;;;;;;;;;;;;;;;;;5070315;28;19920;-75
2024/01/19 07:25:04;;;;;;;;;;;;;;;;;;5068739;28;19920;-75
2024/01/19 07:27:29;;;;;;;;;;;;;;;;;;5064660;28;19924;-75
2024/01/19 07:29:55;;;;;;;;;;;;;;;;;;5060279;28;20022;-70
2024/01/19 07:32:24;;;;;;;;;;;;;;;;;;5056556;28;19925;-68
2024/01/19 07:34:49;;;;;;;;;;;;;;;;;;5074831;28;19955;-68
2024/01/19 07:37:14;;;;;;;;;;;;;;;;;;5058732;28;19993;-69
2024/01/19 07:39:39;;;;;;;;;;;;;;;;;;5059707;28;20400;-68
2024/01/19 07:42:04;;;;;;;;;;;;;;;;;;5058464;28;19928;-68
2024/01/19 07:44:29;;;;;;;;;;;;;;;;;;5069218;28;19928;-68
2024/01/19 07:46:55;;;;;;;;;;;;;;;;;;5067852;28;19943;-68
2024/01/19 07:49:21;;;;;;;;;;;;;;;;;;5060595;28;20484;-68
2024/01/19 07:51:46;;;;;;;;;;;;;;;;;;5067027;28;20015;-68
2024/01/19 07:54:11;;;;;;;;;;;;;;;;;;5074173;28;19923;-69
2024/01/19 07:56:36;;;;;;;;;;;;;;;;;;5059593;28;19921;-68
2024/01/19 07:59:01;;;;;;;;;;;;;;;;;;5070099;28;20288;-69
2024/01/19 08:01:26;;;;;;;;;;;;;;;;;;5052375;28;19940;-68
2024/01/19 08:03:52;;;;;;;;;;;;;;;;;;5062766;28;19990;-68
2024/01/19 08:06:17;;;;;;;;;;;;;;;;;;5060132;28;20354;-68
2024/01/19 08:08:42;;;;;;;;;;;;;;;;;;5062471;28;20305;-69
2024/01/19 08:11:07;;;;;;;;;;;;;;;;;;5035647;28;19924;-69
2024/01/19 08:13:32;;;;;;;;;;;;;;;;;;5058943;28;19920;-69
2024/01/19 08:15:57;;;;;;;;;;;;;;;;;;5067101;28;19966;-69
2024/01/19 08:18:22;;;;;;;;;;;;;;;;;;5072848;28;20443;-69
2024/01/19 08:20:47;;;;;;;;;;;;;;;;;;5068932;28;19921;-68
2024/01/19 08:23:13;;;;;;;;;;;;;;;;;;5064535;28;19924;-69
2024/01/19 08:25:38;;;;;;;;;;;;;;;;;;5060352;28;19974;-68
2024/01/19 08:28:03;;;;;;;;;;;;;;;;;;5058175;28;19986;-69
2024/01/19 08:30:28;;;;;;;;;;;;;;;;;;5053858;28;19928;-69
2024/01/19 08:32:54;;;;;;;;;;;;;;;;;;5051156;28;19924;-69
2024/01/19 08:35:19;;;;;;;;;;;;;;;;;;5061822;28;20179;-69
2024/01/19 08:37:44;;;;;;;;;;;;;;;;;;5064453;28;19968;-69
2024/01/19 08:40:09;;;;;;;;;;;;;;;;;;5053306;28;19925;-69
2024/01/19 08:42:34;;;;;;;;;;;;;;;;;;5061400;28;19971;-68
2024/01/19 08:44:59;;;;;;;;;;;;;;;;;;5067837;28;19948;-69
2024/01/19 08:47:24;;;;;;;;;;;;;;;;;;5059177;28;19963;-69
2024/01/19 08:49:49;;;;;;;;;;;;;;;;;;5067903;28;20345;-68
2024/01/19 08:52:15;;;;;;;;;;;;;;;;;;5059743;28;19925;-68
2024/01/19 08:54:40;;;;;;;;;;;;;;;;;;5064885;28;20466;-68
2024/01/19 08:57:05;;;;;;;;;;;;;;;;;;5062524;28;19920;-68
2024/01/19 08:59:32;;;;;;;;;;;;;;;;;;5070335;28;19927;-68
2024/01/19 09:01:57;;;;;;;;;;;;;;;;;;5061421;28;19928;-68
2024/01/19 09:04:22;;;;;;;;;;;;;;;;;;5059238;28;19921;-67
2024/01/19 09:06:47;;;;;;;;;;;;;;;;;;5064708;28;19925;-68
2024/01/19 09:09:12;;;;;;;;;;;;;;;;;;5059652;28;19940;-67
2024/01/19 09:11:39;;;;;;;;;;;;;;;;;;5067917;28;19925;-68
2024/01/19 09:14:06;;;;;;;;;;;;;;;;;;5065016;28;19921;-68
2024/01/19 09:16:31;;;;;;;;;;;;;;;;;;5055055;28;19920;-70
2024/01/19 09:18:56;;;;;;;;;;;;;;;;;;5066988;28;20023;-68
2024/01/19 09:21:21;;;;;;;;;;;;;;;;;;5066619;28;19921;-67
2024/01/19 09:23:46;;;;;;;;;;;;;;;;;;5072544;28;19924;-68
2024/01/19 09:26:11;;;;;;;;;;;;;;;;;;5064216;28;20308;-67
2024/01/19 09:28:36;;;;;;;;;;;;;;;;;;5071343;28;19928;-68
2024/01/19 09:31:02;;;;;;;;;;;;;;;;;;5067129;28;19970;-67
2024/01/19 09:33:27;;;;;;;;;;;;;;;;;;5071418;28;19929;-67
2024/01/19 09:35:52;;;;;;;;;;;;;;;;;;5070893;28;19917;-69
2024/01/19 09:38:17;;;;;;;;;;;;;;;;;;5061675;28;19955;-67
2024/01/19 09:40:45;;;;;;;;;;;;;;;;;;5070782;28;19935;-67
2024/01/19 09:43:10;;;;;;;;;;;;;;;;;;5072030;28;20038;-68
2024/01/19 09:45:35;;;;;;;;;;;;;;;;;;5068047;28;19927;-68
2024/01/19 09:48:00;;;;;;;;;;;;;;;;;;5065378;28;20316;-67
2024/01/19 09:50:26;;;;;;;;;;;;;;;;;;5074667;28;20448;-68
2024/01/19 09:52:51;;;;;;;;;;;;;;;;;;5070468;28;19953;-68
2024/01/19 09:55:16;;;;;;;;;;;;;;;;;;5064755;28;19931;-67
2024/01/19 09:57:42;;;;;;;;;;;;;;;;;;5071893;28;19921;-68
2024/01/19 10:00:07;;;;;;;;;;;;;;;;;;5057875;28;19921;-67
2024/01/19 10:02:32;;;;;;;;;;;;;;;;;;5063637;28;20851;-67
2024/01/19 10:04:57;;;;;;;;;;;;;;;;;;5063531;28;19920;-69
2024/01/19 10:07:22;;;;;;;;;;;;;;;;;;5062103;28;20308;-67
2024/01/19 10:09:47;;;;;;;;;;;;;;;;;;5062679;28;19936;-68
2024/01/19 10:12:12;;;;;;;;;;;;;;;;;;5056172;28;20377;-67
2024/01/19 10:14:37;;;;;;;;;;;;;;;;;;5058863;28;19927;-67
2024/01/19 10:17:02;;;;;;;;;;;;;;;;;;5075155;28;19947;-67
2024/01/19 10:19:27;;;;;;;;;;;;;;;;;;5071433;28;20345;-69
2024/01/19 10:21:52;;;;;;;;;;;;;;;;;;5072869;28;20253;-69
2024/01/19 10:24:19;;;;;;;;;;;;;;;;;;5067255;28;20382;-69
2024/01/19 10:26:46;;;;;;;;;;;;;;;;;;5066640;28;19952;-69
2024/01/19 10:29:11;;;;;;;;;;;;;;;;;;5073834;28;20416;-67
2024/01/19 10:31:36;;;;;;;;;;;;;;;;;;5060614;28;20382;-67
2024/01/19 10:34:01;;;;;;;;;;;;;;;;;;5063970;28;20003;-67
2024/01/19 10:36:26;;;;;;;;;;;;;;;;;;5076453;28;20472;-66
2024/01/19 10:38:52;;;;;;;;;;;;;;;;;;5078624;28;19961;-66
2024/01/19 10:41:17;;;;;;;;;;;;;;;;;;5074314;28;19920;-66
2024/01/19 10:43:42;;;;;;;;;;;;;;;;;;5070714;28;19920;-66
2024/01/19 10:46:07;;;;;;;;;;;;;;;;;;5073522;28;19931;-67
2024/01/19 10:48:32;;;;;;;;;;;;;;;;;;5075386;28;19927;-66
2024/01/19 10:50:57;;;;;;;;;;;;;;;;;;5052479;28;19936;-66
2024/01/19 10:53:22;;;;;;;;;;;;;;;;;;5078264;28;20396;-66
2024/01/19 10:55:48;;;;;;;;;;;;;;;;;;5069653;28;19920;-66
2024/01/19 10:58:13;;;;;;;;;;;;;;;;;;5080736;28;19982;-65
2024/01/19 11:00:38;;;;;;;;;;;;;;;;;;5058830;28;19928;-66
2024/01/19 11:03:03;;;;;;;;;;;;;;;;;;5073337;28;19928;-66
2024/01/19 11:05:29;;;;;;;;;;;;;;;;;;5071705;28;19925;-66
2024/01/19 11:07:54;;;;;;;;;;;;;;;;;;5070464;28;20178;-66
2024/01/19 11:10:19;;;;;;;;;;;;;;;;;;5069890;28;19934;-66
2024/01/19 11:12:44;;;;;;;;;;;;;;;;;;5073892;28;19920;-66
2024/01/19 11:15:09;;;;;;;;;;;;;;;;;;5073327;28;19920;-67
2024/01/19 11:17:34;;;;;;;;;;;;;;;;;;5070721;28;19944;-67
2024/01/19 11:19:59;;;;;;;;;;;;;;;;;;5070101;28;19920;-67
2024/01/19 11:22:24;;;;;;;;;;;;;;;;;;5071260;28;20381;-67
2024/01/19 11:24:49;;;;;;;;;;;;;;;;;;5071434;28;19921;-67
2024/01/19 11:27:14;;;;;;;;;;;;;;;;;;5072102;28;19924;-66
2024/01/19 11:29:40;;;;;;;;;;;;;;;;;;5068830;28;19966;-66
2024/01/19 11:32:05;;;;;;;;;;;;;;;;;;5069111;28;19970;-69
2024/01/19 11:34:30;;;;;;;;;;;;;;;;;;5078135;28;19982;-67
2024/01/19 11:36:55;;;;;;;;;;;;;;;;;;5075561;28;19920;-66
2024/01/19 11:39:20;;;;;;;;;;;;;;;;;;5066942;28;20019;-66
2024/01/19 11:41:46;;;;;;;;;;;;;;;;;;5049728;28;20010;-66
2024/01/19 11:44:11;;;;;;;;;;;;;;;;;;5069994;28;19920;-67
2024/01/19 11:46:36;;;;;;;;;;;;;;;;;;5074007;28;19950;-66
2024/01/19 11:49:01;;;;;;;;;;;;;;;;;;5079427;28;19924;-67
2024/01/19 11:51:26;;;;;;;;;;;;;;;;;;5075249;28;20147;-66
2024/01/19 11:53:52;;;;;;;;;;;;;;;;;;5079579;28;19923;-66
2024/01/19 11:56:17;;;;;;;;;;;;;;;;;;5070602;28;20341;-66
2024/01/19 11:58:42;;;;;;;;;;;;;;;;;;5051609;28;20011;-66
2024/01/19 12:01:07;;;;;;;;;;;;;;;;;;5077679;28;20386;-66
2024/01/19 12:03:33;;;;;;;;;;;;;;;;;;5074560;28;19928;-66
2024/01/19 12:05:58;;;;;;;;;;;;;;;;;;5072172;28;19925;-67
2024/01/19 12:08:23;;;;;;;;;;;;;;;;;;5063746;28;19916;-66
2024/01/19 12:10:48;;;;;;;;;;;;;;;;;;5071051;28;19924;-66
2024/01/19 12:13:13;;;;;;;;;;;;;;;;;;5069004;28;19932;-67
2024/01/19 12:15:40;;;;;;;;;;;;;;;;;;5076432;28;20015;-66
2024/01/19 12:18:05;;;;;;;;;;;;;;;;;;5076613;28;20007;-66
2024/01/19 12:20:30;;;;;;;;;;;;;;;;;;5072506;28;20103;-66
2024/01/19 12:22:55;;;;;;;;;;;;;;;;;;5070887;28;19932;-66
2024/01/19 12:25:21;;;;;;;;;;;;;;;;;;5069037;28;19920;-66
2024/01/19 12:27:46;;;;;;;;;;;;;;;;;;5077820;28;19931;-66
2024/01/19 12:30:11;;;;;;;;;;;;;;;;;;5056067;28;20317;-66
2024/01/19 12:32:36;;;;;;;;;;;;;;;;;;5065485;28;19921;-66
2024/01/19 12:35:02;;;;;;;;;;;;;;;;;;5063227;28;19983;-67
2024/01/19 12:37:27;;;;;;;;;;;;;;;;;;5082166;28;19950;-67
2024/01/19 12:39:52;;;;;;;;;;;;;;;;;;5075397;28;19925;-67
2024/01/19 12:42:18;;;;;;;;;;;;;;;;;;5070422;28;19920;-66
2024/01/19 12:44:43;;;;;;;;;;;;;;;;;;5079756;28;19994;-67
2024/01/19 12:47:08;;;;;;;;;;;;;;;;;;5076126;28;19928;-67
2024/01/19 12:49:33;;;;;;;;;;;;;;;;;;5080510;28;20269;-67
2024/01/19 12:51:58;;;;;;;;;;;;;;;;;;5072885;28;20059;-66
2024/01/19 12:54:23;;;;;;;;;;;;;;;;;;5070233;28;19920;-67
2024/01/19 12:56:48;;;;;;;;;;;;;;;;;;5070280;28;19971;-66
2024/01/19 12:59:16;;;;;;;;;;;;;;;;;;5070662;28;20400;-67
2024/01/19 13:01:41;;;;;;;;;;;;;;;;;;5078633;28;19956;-66
2024/01/19 13:04:06;;;;;;;;;;;;;;;;;;5076315;28;19920;-66
2024/01/19 13:06:31;;;;;;;;;;;;;;;;;;5069713;28;20022;-67
2024/01/19 13:08:56;;;;;;;;;;;;;;;;;;5077769;28;20281;-66
2024/01/19 13:11:22;;;;;;;;;;;;;;;;;;5067846;28;20280;-67
2024/01/19 13:13:47;;;;;;;;;;;;;;;;;;5060045;28;19929;-66
2024/01/19 13:16:12;;;;;;;;;;;;;;;;;;5068674;28;20289;-67
2024/01/19 13:18:38;;;;;;;;;;;;;;;;;;5072012;28;19924;-66
2024/01/19 13:21:03;;;;;;;;;;;;;;;;;;5078576;28;19920;-67
2024/01/19 13:23:28;;;;;;;;;;;;;;;;;;5082808;28;20326;-67
2024/01/19 13:25:53;;;;;;;;;;;;;;;;;;5070039;28;19932;-66
2024/01/19 13:28:18;;;;;;;;;;;;;;;;;;5067257;28;19925;-67
2024/01/19 13:30:47;;;;;;;;;;;;;;;;;;5069681;28;19924;-66
2024/01/19 13:33:12;;;;;;;;;;;;;;;;;;5073978;28;19966;-66
2024/01/19 13:35:37;;;;;;;;;;;;;;;;;;5069417;28;19936;-66
2024/01/19 13:38:03;;;;;;;;;;;;;;;;;;5074442;28;20281;-66
2024/01/19 13:40:29;;;;;;;;;;;;;;;;;;5067572;28;19935;-66
2024/01/19 13:42:54;;;;;;;;;;;;;;;;;;5058469;28;19921;-67
2024/01/19 13:45:19;;;;;;;;;;;;;;;;;;5069822;28;19932;-66
2024/01/19 13:47:44;;;;;;;;;;;;;;;;;;5071868;28;20265;-66
2024/01/19 13:50:09;;;;;;;;;;;;;;;;;;5070843;28;19928;-66
2024/01/19 13:52:35;;;;;;;;;;;;;;;;;;5069028;28;19936;-66
2024/01/19 13:55:00;;;;;;;;;;;;;;;;;;5061152;28;20269;-66
2024/01/19 13:57:25;;;;;;;;;;;;;;;;;;5077258;28;19954;-67
2024/01/19 13:59:50;;;;;;;;;;;;;;;;;;5075230;28;20395;-67
2024/01/19 14:02:15;;;;;;;;;;;;;;;;;;5070263;28;19920;-66
2024/01/19 14:04:40;;;;;;;;;;;;;;;;;;5065900;28;19930;-66
2024/01/19 14:07:07;;;;;;;;;;;;;;;;;;5073730;28;19924;-67
2024/01/19 14:09:32;;;;;;;;;;;;;;;;;;5054167;28;19948;-67
2024/01/19 14:11:57;;;;;;;;;;;;;;;;;;5083630;28;19970;-67
2024/01/19 14:14:22;;;;;;;;;;;;;;;;;;5070729;28;20373;-67
2024/01/19 14:16:47;;;;;;;;;;;;;;;;;;5073596;28;19969;-67
2024/01/19 14:19:13;;;;;;;;;;;;;;;;;;5073632;28;19974;-67
2024/01/19 14:21:38;;;;;;;;;;;;;;;;;;5081536;28;19970;-66
2024/01/19 14:24:03;;;;;;;;;;;;;;;;;;5073289;28;20488;-67
2024/01/19 14:26:29;;;;;;;;;;;;;;;;;;5073052;28;19963;-67
2024/01/19 14:28:54;;;;;;;;;;;;;;;;;;5088015;28;20053;-67
2024/01/19 14:31:19;;;;;;;;;;;;;;;;;;5074619;28;19920;-67
2024/01/19 14:33:44;;;;;;;;;;;;;;;;;;5081853;28;19916;-67
2024/01/19 14:36:09;;;;;;;;;;;;;;;;;;5072490;28;20251;-67
2024/01/19 14:38:34;;;;;;;;;;;;;;;;;;5081105;28;19997;-67
2024/01/19 14:41:00;;;;;;;;;;;;;;;;;;5073367;28;19974;-67
2024/01/19 14:43:25;;;;;;;;;;;;;;;;;;5072837;28;19921;-67
2024/01/19 14:45:50;;;;;;;;;;;;;;;;;;5077697;28;20034;-67
2024/01/19 14:48:15;;;;;;;;;;;;;;;;;;5053901;28;19924;-67
2024/01/19 14:50:40;;;;;;;;;;;;;;;;;;5072395;28;19920;-68
2024/01/19 14:53:05;;;;;;;;;;;;;;;;;;5088923;28;19923;-67
2024/01/19 14:55:30;;;;;;;;;;;;;;;;;;5084190;28;19917;-67
2024/01/19 14:57:55;;;;;;;;;;;;;;;;;;5077849;28;19916;-67
2024/01/19 15:00:21;;;;;;;;;;;;;;;;;;5073976;28;20001;-67
2024/01/19 15:02:46;;;;;;;;;;;;;;;;;;5084190;28;19917;-67
2024/01/19 15:05:11;;;;;;;;;;;;;;;;;;5072584;28;20416;-67
2024/01/19 15:07:36;;;;;;;;;;;;;;;;;;5080826;28;19916;-67
2024/01/19 15:10:03;;;;;;;;;;;;;;;;;;5071901;28;19970;-67
2024/01/19 15:12:28;;;;;;;;;;;;;;;;;;5080880;28;19927;-67
2024/01/19 15:14:53;;;;;;;;;;;;;;;;;;5086954;28;19916;-67
2024/01/19 15:17:18;;;;;;;;;;;;;;;;;;5082708;28;19916;-67
2024/01/19 15:19:43;;;;;;;;;;;;;;;;;;5071619;28;19916;-67
2024/01/19 15:22:08;;;;;;;;;;;;;;;;;;5072190;28;20111;-68
2024/01/19 15:24:34;;;;;;;;;;;;;;;;;;5080983;28;20003;-67
2024/01/19 15:26:59;;;;;;;;;;;;;;;;;;5080878;28;20225;-67
2024/01/19 15:29:24;;;;;;;;;;;;;;;;;;5071811;28;19928;-67
2024/01/19 15:31:49;;;;;;;;;;;;;;;;;;5077254;28;20337;-68
2024/01/19 15:34:17;;;;;;;;;;;;;;;;;;5081868;28;21282;-67
2024/01/19 15:36:42;;;;;;;;;;;;;;;;;;5071816;28;20015;-68
2024/01/19 15:39:07;;;;;;;;;;;;;;;;;;5071852;28;19927;-67
2024/01/19 15:41:32;;;;;;;;;;;;;;;;;;5075195;28;19924;-68
2024/01/19 15:43:57;;;;;;;;;;;;;;;;;;5083677;28;19924;-68
2024/01/19 15:46:23;;;;;;;;;;;;;;;;;;5073004;28;19917;-68
2024/01/19 15:48:51;;;;;;;;;;;;;;;;;;5071476;28;19928;-68
2024/01/19 15:51:19;;;;;;;;;;;;;;;;;;5071590;28;19920;-68
2024/01/19 15:53:44;;;;;;;;;;;;;;;;;;5076370;28;19968;-68
2024/01/19 15:56:09;;;;;;;;;;;;;;;;;;5082763;28;19916;-68
2024/01/19 15:58:34;;;;;;;;;;;;;;;;;;5080278;28;19925;-68
2024/01/19 16:00:59;;;;;;;;;;;;;;;;;;5070640;28;20300;-68
2024/01/19 16:03:24;;;;;;;;;;;;;;;;;;5078036;28;19916;-68
2024/01/19 16:05:50;;;;;;;;;;;;;;;;;;5076270;28;20034;-68
2024/01/19 16:08:15;;;;;;;;;;;;;;;;;;5073945;28;20377;-68
2024/01/19 16:10:40;;;;;;;;;;;;;;;;;;5082919;28;19921;-68
2024/01/19 16:13:05;;;;;;;;;;;;;;;;;;5081367;28;19916;-68
2024/01/19 16:15:30;;;;;;;;;;;;;;;;;;5087761;28;19916;-68
2024/01/19 16:17:55;;;;;;;;;;;;;;;;;;5071176;28;19917;-68
2024/01/19 16:20:21;;;;;;;;;;;;;;;;;;5079741;28;19949;-68
2024/01/19 16:22:46;;;;;;;;;;;;;;;;;;5078866;28;20270;-68
2024/01/19 16:25:11;;;;;;;;;;;;;;;;;;5071485;28;19955;-68
2024/01/19 16:27:36;;;;;;;;;;;;;;;;;;5070814;28;19971;-68
2024/01/19 16:30:01;;;;;;;;;;;;;;;;;;5070195;28;19963;-69
2024/01/19 16:32:26;;;;;;;;;;;;;;;;;;5078408;28;19928;-69